Time;durP1;ratioP1;P1;durP2;ratioP2;P2;SDS_P1;SDS_P2;PMS_P1;PMS_P2;Temp;Humidity;BMP_temperature;BMP_pressure;BME280_temperature;BME280_humidity;BME280_pressure;Samples;Min_cycle;Max_cycle;Signal;HPM_P1;HPM_P2
2023/04/30 05:47:38;;;;;;;2.80;2.47;;;12.30;81.60;;;;;;6082701;23;1717195;-72
2023/04/30 05:50:04;;;;;;;4.15;2.90;;;12.30;82.10;;;;;;6119943;23;20685;-72
2023/04/30 05:52:31;;;;;;;2.65;2.45;;;12.30;82.30;;;;;;6121837;23;20158;-72
2023/04/30 05:54:57;;;;;;;3.03;2.83;;;12.40;82.60;;;;;;6122420;23;20150;-72
2023/04/30 05:57:22;;;;;;;6.03;3.03;;;12.40;82.50;;;;;;6119389;23;20160;-73
2023/04/30 05:59:48;;;;;;;3.28;2.97;;;12.50;82.20;;;;;;6116971;23;20150;-72
2023/04/30 06:02:14;;;;;;;3.25;3.03;;;12.60;81.80;;;;;;6118352;23;20802;-72
2023/04/30 06:04:39;;;;;;;3.42;3.15;;;12.70;81.00;;;;;;6118548;23;20156;-72
2023/04/30 06:07:05;;;;;;;2.85;2.55;;;12.90;80.70;;;;;;6119194;23;20181;-72
2023/04/30 06:09:31;;;;;;;2.60;2.40;;;12.90;79.70;;;;;;6119735;23;20216;-72
2023/04/30 06:11:57;;;;;;;3.35;3.13;;;13.00;79.80;;;;;;6119114;23;20571;-72
2023/04/30 06:14:23;;;;;;;2.88;2.67;;;13.00;80.10;;;;;;6120423;23;20173;-72
2023/04/30 06:16:49;;;;;;;3.03;2.88;;;13.00;80.20;;;;;;6093211;23;20161;-71
2023/04/30 06:19:15;;;;;;;3.85;3.30;;;13.10;80.10;;;;;;6119639;23;20564;-73
2023/04/30 06:21:42;;;;;;;3.53;3.20;;;13.20;79.80;;;;;;6119297;23;20145;-73
2023/04/30 06:24:08;;;;;;;4.10;3.53;;;13.40;79.30;;;;;;6093895;23;20154;-73
2023/04/30 06:26:34;;;;;;;3.53;3.28;;;13.50;78.90;;;;;;6119164;23;20192;-74
2023/04/30 06:29:00;;;;;;;3.50;2.92;;;13.60;78.90;;;;;;6120343;23;20196;-73
2023/04/30 06:31:26;;;;;;;3.97;3.30;;;13.70;78.20;;;;;;6121579;23;20153;-73
2023/04/30 06:33:51;;;;;;;3.55;3.35;;;13.80;78.30;;;;;;6122035;23;20149;-73
2023/04/30 06:36:18;;;;;;;3.95;3.08;;;13.90;78.50;;;;;;6121371;23;20487;-73
2023/04/30 06:38:45;;;;;;;3.58;3.35;;;14.00;77.90;;;;;;6095644;23;20161;-73
2023/04/30 06:41:11;;;;;;;4.28;3.58;;;14.10;77.10;;;;;;6093885;23;20157;-73
2023/04/30 06:43:37;;;;;;;4.05;3.58;;;14.10;77.00;;;;;;6120178;23;20185;-73
2023/04/30 06:46:03;;;;;;;5.22;3.63;;;14.10;76.60;;;;;;6120879;23;20201;-72
2023/04/30 06:48:29;;;;;;;4.72;4.05;;;14.10;76.80;;;;;;6093669;23;20197;-72
2023/04/30 06:50:54;;;;;;;6.53;4.38;;;14.20;76.70;;;;;;6120512;23;20847;-73
2023/04/30 06:53:20;;;;;;;4.55;4.15;;;14.30;76.10;;;;;;6120752;23;20158;-71
2023/04/30 06:55:47;;;;;;;5.50;4.40;;;14.40;75.50;;;;;;6120106;23;20157;-74
2023/04/30 06:58:12;;;;;;;3.75;3.45;;;14.50;75.30;;;;;;6121015;23;20154;-72
2023/04/30 07:00:38;;;;;;;5.68;4.28;;;14.60;75.00;;;;;;6120185;23;20156;-73
2023/04/30 07:03:04;;;;;;;4.38;4.03;;;14.80;74.90;;;;;;6120286;23;20562;-73
2023/04/30 07:05:30;;;;;;;4.82;4.43;;;15.00;74.50;;;;;;6121845;23;20237;-73
2023/04/30 07:07:56;;;;;;;5.75;3.95;;;15.10;73.50;;;;;;6120192;23;20185;-71
2023/04/30 07:10:22;;;;;;;5.40;3.80;;;15.10;73.30;;;;;;6120556;23;20224;-72
2023/04/30 07:12:48;;;;;;;5.88;4.47;;;15.30;73.10;;;;;;6121458;23;20146;-76
2023/04/30 07:15:13;;;;;;;4.18;3.72;;;15.50;72.90;;;;;;6122094;23;20154;-72
2023/04/30 07:17:40;;;;;;;4.80;4.40;;;15.60;72.80;;;;;;6120898;23;20508;-72
2023/04/30 07:20:07;;;;;;;4.45;4.10;;;15.80;72.40;;;;;;6094284;23;20161;-72
2023/04/30 07:22:33;;;;;;;5.15;4.25;;;15.80;71.90;;;;;;6120138;23;20205;-72
2023/04/30 07:24:59;;;;;;;6.40;4.50;;;15.90;72.20;;;;;;6120229;23;20150;-72
2023/04/30 07:27:27;;;;;;;5.28;4.47;;;15.90;72.00;;;;;;6094884;23;20248;-73
2023/04/30 07:29:54;;;;;;;4.97;4.25;;;15.80;72.30;;;;;;6094214;23;20186;-74
2023/04/30 07:32:20;;;;;;;5.60;4.28;;;15.80;72.50;;;;;;6120817;23;20146;-72
2023/04/30 07:34:46;;;;;;;5.30;4.53;;;15.90;72.90;;;;;;6120087;23;20526;-73
2023/04/30 07:37:12;;;;;;;4.70;4.20;;;15.90;72.90;;;;;;6094644;23;20634;-72
2023/04/30 07:39:38;;;;;;;8.43;4.30;;;15.90;73.00;;;;;;6118934;23;20177;-73
2023/04/30 07:42:04;;;;;;;4.70;4.28;;;15.80;72.40;;;;;;6117991;23;20149;-73
2023/04/30 07:44:30;;;;;;;4.28;3.97;;;15.90;72.40;;;;;;6118325;23;20150;-72
2023/04/30 07:46:56;;;;;;;4.22;3.80;;;15.90;72.30;;;;;;6119034;23;20174;-74
2023/04/30 07:49:22;;;;;;;4.50;4.10;;;15.90;72.40;;;;;;6093030;23;20644;-72
2023/04/30 07:51:47;;;;;;;8.10;4.20;;;16.10;72.20;;;;;;6119170;23;20208;-72
2023/04/30 07:54:13;;;;;;;4.30;3.92;;;16.20;72.20;;;;;;6118538;23;20153;-72
2023/04/30 07:56:39;;;;;;;6.05;4.32;;;16.30;71.70;;;;;;6121039;23;20161;-74
2023/04/30 07:59:05;;;;;;;4.88;4.45;;;16.40;71.60;;;;;;6121500;23;20154;-74
2023/04/30 08:01:31;;;;;;;5.53;3.92;;;16.50;70.80;;;;;;6120557;23;20616;-72
2023/04/30 08:03:57;;;;;;;4.15;3.50;;;16.60;71.00;;;;;;6120543;23;20145;-72
2023/04/30 08:06:23;;;;;;;3.35;3.15;;;16.70;69.90;;;;;;6121145;23;20234;-74
2023/04/30 08:08:48;;;;;;;5.32;2.95;;;16.60;69.90;;;;;;6121143;23;20242;-72
2023/04/30 08:11:15;;;;;;;2.72;2.63;;;16.40;70.20;;;;;;6121040;23;20641;-72
2023/04/30 08:13:41;;;;;;;3.17;1.85;;;16.50;70.00;;;;;;6095427;23;20162;-72
2023/04/30 08:16:07;;;;;;;2.17;2.08;;;16.10;70.10;;;;;;6121281;23;20146;-73
2023/04/30 08:18:33;;;;;;;2.28;2.17;;;16.00;70.80;;;;;;6121786;23;20150;-73
2023/04/30 08:21:00;;;;;;;2.58;2.38;;;15.80;71.30;;;;;;6095738;23;20578;-72
2023/04/30 08:23:26;;;;;;;7.68;2.35;;;15.60;71.80;;;;;;6095431;23;20193;-72
2023/04/30 08:25:52;;;;;;;2.58;2.38;;;15.50;71.90;;;;;;6120512;23;20883;-72
2023/04/30 08:28:18;;;;;;;2.35;2.10;;;15.60;71.90;;;;;;6121075;23;20206;-73
2023/04/30 08:30:43;;;;;;;2.78;2.50;;;15.80;72.10;;;;;;6121123;23;20178;-73
2023/04/30 08:33:10;;;;;;;2.80;2.25;;;16.00;71.30;;;;;;6121584;23;20146;-73
2023/04/30 08:35:35;;;;;;;2.40;1.88;;;16.20;71.60;;;;;;6122935;23;20642;-73
2023/04/30 08:38:01;;;;;;;2.45;2.22;;;16.40;70.30;;;;;;6123173;23;20150;-73
2023/04/30 08:40:27;;;;;;;1.85;1.75;;;16.60;69.70;;;;;;6122828;23;20563;-73
2023/04/30 08:43:03;;;;;;;3.35;1.83;;;16.80;68.60;;;;;;6122968;23;20602;-73
2023/04/30 08:45:34;;;;;;;1.65;1.55;;;17.10;68.60;;;;;;6121550;23;20225;-73
2023/04/30 08:48:01;;;;;;;3.33;1.70;;;17.20;67.30;;;;;;6097047;23;20627;-73
2023/04/30 08:50:27;;;;;;;1.48;1.38;;;17.10;67.30;;;;;;6124953;23;20548;-73
2023/04/30 08:52:53;;;;;;;1.73;1.63;;;17.10;67.90;;;;;;6123085;23;20181;-72
2023/04/30 08:55:19;;;;;;;1.70;1.58;;;17.10;67.50;;;;;;6122383;23;20484;-72
2023/04/30 08:57:45;;;;;;;1.75;1.65;;;17.10;67.40;;;;;;6122653;23;20161;-74
2023/04/30 09:00:11;;;;;;;3.28;1.77;;;17.20;67.70;;;;;;6122766;23;20608;-72
2023/04/30 09:02:41;;;;;;;3.78;1.67;;;17.30;66.90;;;;;;6122417;23;20173;-75
2023/04/30 09:05:10;;;;;;;1.90;1.80;;;17.30;67.00;;;;;;6096445;23;20161;-74
2023/04/30 09:07:41;;;;;;;1.90;1.67;;;17.20;66.40;;;;;;6122199;23;20182;-73
2023/04/30 09:10:17;;;;;;;1.90;1.80;;;17.10;66.80;;;;;;6122388;23;20506;-73
2023/04/30 09:12:44;;;;;;;1.52;1.52;;;17.10;66.80;;;;;;6122632;23;20572;-73
2023/04/30 09:15:11;;;;;;;1.45;1.35;;;17.30;66.60;;;;;;6096500;23;20161;-74
2023/04/30 09:17:37;;;;;;;1.58;1.48;;;17.50;65.70;;;;;;6122488;23;20503;-74
2023/04/30 09:20:07;;;;;;;1.73;1.50;;;17.80;66.10;;;;;;6122227;23;20145;-74
2023/04/30 09:22:34;;;;;;;2.72;1.60;;;18.10;65.50;;;;;;6096219;23;20489;-73
2023/04/30 09:25:00;;;;;;;1.80;1.80;;;18.40;64.60;;;;;;6122388;23;20165;-74
2023/04/30 09:27:26;;;;;;;1.90;1.80;;;18.50;64.10;;;;;;6122040;23;20181;-73
2023/04/30 09:29:51;;;;;;;1.52;1.52;;;18.50;63.80;;;;;;6122352;23;20474;-73
2023/04/30 09:32:18;;;;;;;1.58;1.52;;;18.60;64.20;;;;;;6122113;23;20630;-73
2023/04/30 09:34:43;;;;;;;1.67;1.35;;;19.10;63.90;;;;;;6096512;23;20157;-73
2023/04/30 09:37:10;;;;;;;1.88;1.73;;;19.90;61.90;;;;;;6122365;23;20624;-72
2023/04/30 09:39:50;;;;;;;1.42;1.42;;;20.40;60.60;;;;;;6122288;23;20154;-72
2023/04/30 09:42:17;;;;;;;1.75;1.73;;;21.10;59.60;;;;;;6122595;23;20146;-73
2023/04/30 09:44:42;;;;;;;1.63;1.63;;;21.40;58.00;;;;;;6095965;23;20193;-72
2023/04/30 09:47:16;;;;;;;1.63;1.52;;;21.70;57.70;;;;;;6121919;23;20189;-74
2023/04/30 09:49:43;;;;;;;4.22;1.90;;;21.50;57.90;;;;;;6121984;23;20142;-74
2023/04/30 09:52:10;;;;;;;1.63;1.63;;;21.60;58.40;;;;;;6095200;23;20514;-73
2023/04/30 09:54:37;;;;;;;1.35;1.35;;;22.10;57.50;;;;;;6094876;23;20639;-74
2023/04/30 09:57:03;;;;;;;1.70;1.60;;;22.60;56.90;;;;;;6121891;23;20577;-73
2023/04/30 09:59:38;;;;;;;1.52;1.52;;;23.30;56.00;;;;;;6121730;23;20173;-74
2023/04/30 10:02:05;;;;;;;1.45;1.45;;;24.20;55.20;;;;;;6094838;23;20150;-72
2023/04/30 10:04:39;;;;;;;1.10;1.10;;;24.90;52.40;;;;;;6120925;23;20160;-73
2023/04/30 10:07:12;;;;;;;1.27;1.27;;;25.20;52.30;;;;;;6120774;23;20181;-73
2023/04/30 10:09:40;;;;;;;1.40;1.40;;;25.80;51.60;;;;;;6120595;23;20297;-73
2023/04/30 10:12:13;;;;;;;1.27;1.27;;;26.10;50.20;;;;;;6094668;23;20204;-72
2023/04/30 10:14:43;;;;;;;1.80;1.70;;;26.10;50.80;;;;;;6121044;23;20241;-73
2023/04/30 10:17:13;;;;;;;1.65;1.60;;;26.10;50.50;;;;;;6120923;23;20162;-73
2023/04/30 10:19:46;;;;;;;1.60;1.60;;;25.30;51.10;;;;;;6117251;23;20134;-73
2023/04/30 10:22:13;;;;;;;1.30;1.30;;;24.70;53.10;;;;;;6120778;23;20221;-73
2023/04/30 10:24:39;;;;;;;1.48;1.42;;;24.00;53.40;;;;;;6120541;23;20177;-73
2023/04/30 10:27:05;;;;;;;1.48;1.48;;;23.50;54.30;;;;;;6120528;23;20248;-73
2023/04/30 10:29:31;;;;;;;1.45;1.45;;;23.00;56.40;;;;;;6120281;23;20164;-73
2023/04/30 10:31:57;;;;;;;1.40;1.40;;;21.90;59.50;;;;;;6120087;23;20154;-73
2023/04/30 10:34:44;;;;;;;2.33;1.48;;;21.00;63.10;;;;;;6118994;23;20453;-73
2023/04/30 10:37:15;;;;;;;1.70;1.70;;;20.10;65.30;;;;;;6090855;23;20397;-73
2023/04/30 10:39:41;;;;;;;1.30;1.20;;;19.40;67.00;;;;;;6092364;23;20629;-72
2023/04/30 10:42:10;;;;;;;1.27;1.27;;;18.90;68.00;;;;;;6118470;23;20610;-72
2023/04/30 10:44:36;;;;;;;1.00;1.00;;;18.70;69.10;;;;;;6092282;23;20217;-74
2023/04/30 10:47:03;;;;;;;1.30;1.20;;;18.50;68.40;;;;;;6117886;23;20182;-73
2023/04/30 10:49:29;;;;;;;1.15;1.15;;;18.60;68.10;;;;;;6119568;23;20496;-74
2023/04/30 10:51:59;;;;;;;1.48;1.45;;;19.00;70.20;;;;;;6094046;23;20181;-74
2023/04/30 10:54:27;;;;;;;1.20;1.20;;;19.70;71.20;;;;;;6093444;23;20959;-73
2023/04/30 10:56:55;;;;;;;1.75;1.13;;;20.70;69.60;;;;;;6119451;23;20154;-73
2023/04/30 10:59:23;;;;;;;1.20;1.20;;;21.80;61.90;;;;;;6118326;23;20497;-73
2023/04/30 11:02:00;;;;;;;1.17;1.15;;;22.40;61.70;;;;;;6092540;23;20610;-73
2023/04/30 11:04:26;;;;;;;1.58;1.05;;;23.30;61.70;;;;;;6093062;23;20518;-73
2023/04/30 11:06:52;;;;;;;1.42;1.38;;;24.20;60.90;;;;;;6092844;23;20596;-73
2023/04/30 11:09:18;;;;;;;1.15;1.08;;;25.20;57.00;;;;;;6093670;23;20162;-73
2023/04/30 11:11:45;;;;;;;1.85;1.77;;;25.80;55.30;;;;;;6119569;23;20498;-76
2023/04/30 11:14:11;;;;;;;1.10;1.10;;;26.30;54.70;;;;;;6119837;23;20150;-74
2023/04/30 11:16:37;;;;;;;2.72;1.23;;;26.90;53.70;;;;;;6118961;23;20517;-75
2023/04/30 11:19:12;;;;;;;0.90;0.90;;;27.40;54.40;;;;;;6118520;23;20229;-73
2023/04/30 11:22:01;;;;;;;0.98;0.98;;;27.70;51.80;;;;;;6120033;23;20141;-73
2023/04/30 11:24:57;;;;;;;1.15;1.10;;;26.90;50.30;;;;;;6119396;23;20524;-73
2023/04/30 11:27:28;;;;;;;1.40;1.40;;;26.00;52.30;;;;;;6119639;23;20185;-73
2023/04/30 11:29:55;;;;;;;1.20;1.20;;;25.70;54.10;;;;;;6118115;23;20150;-73
2023/04/30 11:32:22;;;;;;;1.35;1.35;;;25.20;53.20;;;;;;6118392;23;20244;-73
2023/04/30 11:34:48;;;;;;;1.33;1.33;;;24.70;54.50;;;;;;6118637;23;20157;-72
2023/04/30 11:37:28;;;;;;;1.00;1.00;;;24.00;54.10;;;;;;6118456;23;20229;-72
2023/04/30 11:39:55;;;;;;;1.42;1.42;;;24.00;55.10;;;;;;6119473;23;20142;-76
2023/04/30 11:42:20;;;;;;;1.42;1.17;;;24.40;55.70;;;;;;6119138;23;20640;-73
2023/04/30 11:44:46;;;;;;;1.13;1.13;;;25.00;55.20;;;;;;6119445;23;20150;-73
2023/04/30 11:47:13;;;;;;;1.95;0.73;;;26.10;54.20;;;;;;6092612;23;20232;-73
2023/04/30 11:49:39;;;;;;;0.90;0.90;;;27.10;53.40;;;;;;6005221;23;20207;-75
2023/04/30 11:52:05;;;;;;;1.05;1.05;;;27.90;52.30;;;;;;5993454;23;20191;-76
2023/04/30 11:54:40;;;;;;;0.95;0.88;;;28.70;51.80;;;;;;5994643;23;20645;-74
2023/04/30 11:57:05;;;;;;;2.95;0.93;;;29.60;49.60;;;;;;5990868;23;20183;-74
2023/04/30 11:59:40;;;;;;;0.90;0.90;;;30.30;49.40;;;;;;5993189;23;20180;-76
2023/04/30 12:02:06;;;;;;;1.20;1.20;;;30.60;50.10;;;;;;5992267;23;20188;-74
2023/04/30 12:04:32;;;;;;;0.90;0.90;;;30.60;49.90;;;;;;5992855;23;20176;-74
2023/04/30 12:06:59;;;;;;;2.30;0.80;;;31.00;49.60;;;;;;5992809;23;20255;-77
2023/04/30 12:09:25;;;;;;;0.85;0.85;;;31.40;48.60;;;;;;5994561;23;21043;-75
2023/04/30 12:11:50;;;;;;;2.65;1.10;;;31.00;47.80;;;;;;5995952;23;21975;-75
2023/04/30 12:14:16;;;;;;;0.90;0.90;;;30.30;48.20;;;;;;5996822;23;20179;-73
2023/04/30 12:16:51;;;;;;;1.23;1.20;;;29.40;49.40;;;;;;5996864;23;20207;-75
2023/04/30 12:19:19;;;;;;;1.10;1.10;;;28.50;50.00;;;;;;5997268;23;20183;-73
2023/04/30 12:21:47;;;;;;;2.25;1.45;;;27.30;52.90;;;;;;6003861;23;20192;-73
2023/04/30 12:24:14;;;;;;;1.40;1.40;;;26.40;54.20;;;;;;6004173;23;20180;-73
2023/04/30 12:26:40;;;;;;;1.85;1.70;;;25.70;54.80;;;;;;6003592;23;20192;-73
2023/04/30 12:29:16;;;;;;;1.00;1.00;;;24.90;55.70;;;;;;6004509;23;20206;-72
2023/04/30 12:31:44;;;;;;;0.70;0.70;;;24.00;57.40;;;;;;6005152;23;20204;-73
2023/04/30 12:34:11;;;;;;;0.95;0.95;;;23.40;58.50;;;;;;6003010;23;20248;-73
2023/04/30 12:36:41;;;;;;;0.77;0.77;;;22.90;59.70;;;;;;6004222;23;20515;-72
2023/04/30 12:39:17;;;;;;;0.70;0.70;;;22.60;61.10;;;;;;6002865;23;20509;-72
2023/04/30 12:41:47;;;;;;;1.10;1.10;;;22.20;62.00;;;;;;6004397;23;20203;-72
2023/04/30 12:44:22;;;;;;;1.38;1.00;;;21.90;63.40;;;;;;6004114;23;20159;-72
2023/04/30 12:46:49;;;;;;;0.95;0.95;;;21.60;64.30;;;;;;6001899;23;20191;-72
2023/04/30 12:49:34;;;;;;;0.85;0.85;;;21.30;65.30;;;;;;6001839;23;20199;-74
2023/04/30 12:52:11;;;;;;;1.85;0.90;;;21.10;65.60;;;;;;6002219;23;20171;-73
2023/04/30 12:54:38;;;;;;;0.85;0.85;;;21.40;64.70;;;;;;6002242;23;20271;-73
2023/04/30 12:57:09;;;;;;;1.10;1.10;;;22.00;64.40;;;;;;6005174;23;20159;-73
2023/04/30 12:59:53;;;;;;;0.82;0.82;;;22.70;62.60;;;;;;6003530;23;20156;-72
2023/04/30 13:02:23;;;;;;;1.20;1.20;;;23.20;61.10;;;;;;6003516;23;20638;-73
2023/04/30 13:04:50;;;;;;;1.30;1.13;;;23.00;60.50;;;;;;6005441;23;20149;-73
2023/04/30 13:07:15;;;;;;;0.95;0.95;;;22.50;61.00;;;;;;6005315;23;20196;-73
2023/04/30 13:09:41;;;;;;;0.88;0.88;;;21.70;61.80;;;;;;6005090;23;20412;-73
2023/04/30 13:12:07;;;;;;;0.70;0.70;;;21.30;63.00;;;;;;6005422;23;20153;-73
2023/04/30 13:14:33;;;;;;;0.93;0.80;;;21.20;63.60;;;;;;6003328;23;20220;-73
2023/04/30 13:17:00;;;;;;;1.00;1.00;;;20.90;63.40;;;;;;6004464;23;20163;-73
2023/04/30 13:19:26;;;;;;;0.98;0.90;;;20.20;63.30;;;;;;6002138;23;20558;-73
2023/04/30 13:21:52;;;;;;;0.73;0.73;;;19.50;64.70;;;;;;6004462;23;20156;-72
2023/04/30 13:24:17;;;;;;;0.85;0.85;;;19.00;66.10;;;;;;6005340;23;20155;-72
2023/04/30 13:26:43;;;;;;;0.77;0.77;;;18.80;66.60;;;;;;6005090;23;20188;-73
2023/04/30 13:29:10;;;;;;;0.80;0.80;;;18.50;67.40;;;;;;6003647;23;20160;-73
2023/04/30 13:31:35;;;;;;;0.95;0.95;;;18.50;67.60;;;;;;6005635;23;20157;-73
2023/04/30 13:34:01;;;;;;;0.90;0.90;;;18.40;67.60;;;;;;6003407;23;20161;-74
2023/04/30 13:36:28;;;;;;;0.90;0.90;;;18.20;68.20;;;;;;6004950;23;20786;-72
2023/04/30 13:38:53;;;;;;;0.80;0.80;;;18.20;68.20;;;;;;6002115;23;20173;-73
2023/04/30 13:41:20;;;;;;;1.23;0.98;;;18.30;68.90;;;;;;6002645;23;20164;-74
2023/04/30 13:43:47;;;;;;;0.80;0.80;;;18.30;68.50;;;;;;6005523;23;20179;-74
2023/04/30 13:46:13;;;;;;;1.38;1.13;;;18.30;68.80;;;;;;6005448;23;20152;-73
2023/04/30 13:48:39;;;;;;;1.20;1.20;;;18.40;68.50;;;;;;6003094;23;20553;-74
2023/04/30 13:51:05;;;;;;;1.70;1.02;;;18.40;68.00;;;;;;6002976;23;20167;-73
2023/04/30 13:53:31;;;;;;;1.48;1.30;;;18.20;67.70;;;;;;6005219;23;20152;-74
2023/04/30 13:55:58;;;;;;;1.02;1.02;;;18.10;67.80;;;;;;6004506;23;20519;-75
2023/04/30 13:58:24;;;;;;;0.73;0.73;;;18.30;67.60;;;;;;6004091;23;20164;-74
2023/04/30 14:00:50;;;;;;;0.98;0.98;;;18.50;67.30;;;;;;6006345;23;20866;-74
2023/04/30 14:03:17;;;;;;;1.08;1.00;;;18.60;66.90;;;;;;6005590;23;20216;-74
2023/04/30 14:05:43;;;;;;;1.00;0.90;;;18.90;66.90;;;;;;6006013;23;20235;-75
2023/04/30 14:08:09;;;;;;;0.80;0.80;;;19.00;65.10;;;;;;6005285;23;20214;-74
2023/04/30 14:10:35;;;;;;;0.82;0.82;;;19.60;63.80;;;;;;6005398;23;20154;-73
2023/04/30 14:13:00;;;;;;;0.75;0.75;;;20.20;62.40;;;;;;6006473;23;20605;-72
2023/04/30 14:15:29;;;;;;;1.83;0.93;;;20.60;61.80;;;;;;6005932;23;20593;-73
2023/04/30 14:17:54;;;;;;;0.73;0.73;;;21.00;61.40;;;;;;6004146;23;20247;-70
2023/04/30 14:20:20;;;;;;;0.90;0.90;;;21.70;61.30;;;;;;6003557;23;20160;-74
2023/04/30 14:22:46;;;;;;;2.08;1.08;;;22.50;59.70;;;;;;6002552;23;20885;-73
2023/04/30 14:25:12;;;;;;;0.80;0.80;;;23.10;58.30;;;;;;6002136;23;20157;-72
2023/04/30 14:27:42;;;;;;;0.90;0.90;;;23.30;57.20;;;;;;6001539;23;20331;-72
2023/04/30 14:30:09;;;;;;;0.88;0.88;;;23.20;56.90;;;;;;6002725;23;20168;-72
2023/04/30 14:32:35;;;;;;;3.40;1.30;;;23.00;57.10;;;;;;6002616;23;20405;-73
2023/04/30 14:35:01;;;;;;;1.85;1.05;;;22.50;57.50;;;;;;5977970;23;20164;-73
2023/04/30 14:37:27;;;;;;;1.30;1.30;;;22.40;58.30;;;;;;6002109;23;20152;-73
2023/04/30 14:39:53;;;;;;;0.85;0.85;;;22.20;58.70;;;;;;5998542;23;20810;-73
2023/04/30 14:42:18;;;;;;;0.80;0.80;;;22.00;58.50;;;;;;6000371;23;20187;-72
2023/04/30 14:44:44;;;;;;;1.13;1.02;;;21.90;58.70;;;;;;6002850;23;20152;-74
2023/04/30 14:47:10;;;;;;;0.88;0.88;;;21.90;58.70;;;;;;6002713;23;20195;-74
2023/04/30 14:49:36;;;;;;;0.68;0.68;;;22.40;58.30;;;;;;6003896;23;20145;-73
2023/04/30 14:52:02;;;;;;;0.93;0.93;;;23.00;57.30;;;;;;6001979;23;20188;-72
2023/04/30 14:54:28;;;;;;;0.90;0.90;;;23.70;56.60;;;;;;6003516;23;20153;-71
2023/04/30 14:56:53;;;;;;;1.02;0.82;;;24.60;55.60;;;;;;6003155;23;20153;-71
2023/04/30 14:59:19;;;;;;;0.88;0.88;;;25.30;54.40;;;;;;6002850;23;20223;-71
2023/04/30 15:01:45;;;;;;;1.58;0.80;;;26.00;52.20;;;;;;6002202;23;20219;-72
2023/04/30 15:04:11;;;;;;;1.08;0.77;;;26.00;52.20;;;;;;6001961;23;20523;-71
2023/04/30 15:06:37;;;;;;;3.13;1.00;;;25.70;52.70;;;;;;6002009;23;20172;-71
2023/04/30 15:09:03;;;;;;;0.70;0.70;;;25.60;52.40;;;;;;6003991;23;20857;-72
2023/04/30 15:11:28;;;;;;;0.95;0.95;;;25.40;52.50;;;;;;6004324;23;20149;-71
2023/04/30 15:13:54;;;;;;;1.40;1.38;;;25.20;53.50;;;;;;6005412;23;20148;-71
2023/04/30 15:16:20;;;;;;;1.05;1.05;;;24.80;56.40;;;;;;6003948;23;20651;-71
2023/04/30 15:18:47;;;;;;;1.02;1.02;;;24.30;58.10;;;;;;6004114;23;20551;-72
2023/04/30 15:21:13;;;;;;;1.10;1.10;;;23.80;59.60;;;;;;6003039;23;20216;-71
2023/04/30 15:23:39;;;;;;;1.10;1.10;;;23.30;60.50;;;;;;6002879;23;20153;-72
2023/04/30 15:26:06;;;;;;;1.25;0.70;;;22.90;61.50;;;;;;6001820;23;20152;-72
2023/04/30 15:28:32;;;;;;;1.17;1.17;;;22.60;62.00;;;;;;6002071;23;20533;-72
2023/04/30 15:30:59;;;;;;;1.15;1.05;;;22.30;63.10;;;;;;6003984;23;20152;-72
2023/04/30 15:33:27;;;;;;;0.73;0.73;;;22.00;63.80;;;;;;6002778;23;20171;-72
2023/04/30 15:35:54;;;;;;;0.90;0.90;;;21.70;63.80;;;;;;6003190;23;20307;-71
2023/04/30 15:38:20;;;;;;;1.15;1.10;;;21.60;64.30;;;;;;6004067;23;20171;-72
2023/04/30 15:40:46;;;;;;;2.25;0.88;;;21.40;64.60;;;;;;6004110;23;20149;-72
2023/04/30 15:43:12;;;;;;;1.00;0.85;;;21.30;65.00;;;;;;6004818;23;20161;-71
2023/04/30 15:45:38;;;;;;;1.83;1.83;;;21.00;65.50;;;;;;6001706;23;20167;-71
2023/04/30 15:48:04;;;;;;;1.70;1.60;;;21.00;65.60;;;;;;6001522;23;20200;-70
2023/04/30 15:50:30;;;;;;;2.10;1.88;;;21.30;65.50;;;;;;6001774;23;20161;-70
2023/04/30 15:52:56;;;;;;;0.90;0.90;;;21.70;63.70;;;;;;6003245;23;20614;-70
2023/04/30 15:55:22;;;;;;;1.10;1.10;;;22.20;62.90;;;;;;6004415;23;20180;-70
2023/04/30 15:57:48;;;;;;;2.35;1.08;;;22.60;61.90;;;;;;6004670;23;20163;-72
2023/04/30 16:00:14;;;;;;;0.95;0.95;;;23.10;61.00;;;;;;6004006;23;20153;-71
2023/04/30 16:02:40;;;;;;;1.23;1.23;;;23.40;60.30;;;;;;6001383;23;20289;-71
2023/04/30 16:05:06;;;;;;;2.30;1.13;;;23.70;60.20;;;;;;6003336;23;20227;-71
2023/04/30 16:07:32;;;;;;;1.00;1.00;;;23.90;58.90;;;;;;6004391;23;20191;-72
2023/04/30 16:10:00;;;;;;;1.30;1.30;;;23.80;58.60;;;;;;6002658;23;20165;-72
2023/04/30 16:12:25;;;;;;;1.75;1.30;;;23.50;59.10;;;;;;6002643;23;20247;-72
2023/04/30 16:14:52;;;;;;;1.10;1.10;;;23.20;59.30;;;;;;6004176;23;20172;-72
2023/04/30 16:17:18;;;;;;;1.13;1.13;;;22.90;60.00;;;;;;6002926;23;20171;-73
2023/04/30 16:19:43;;;;;;;0.88;0.88;;;22.60;60.60;;;;;;6004067;23;20224;-72
2023/04/30 16:22:09;;;;;;;2.17;1.55;;;22.40;61.30;;;;;;6003807;23;20195;-72
2023/04/30 16:24:35;;;;;;;2.22;2.13;;;22.50;61.60;;;;;;6004284;23;20164;-72
2023/04/30 16:27:00;;;;;;;1.45;1.23;;;22.50;61.70;;;;;;6002254;23;20212;-73
2023/04/30 16:29:26;;;;;;;1.67;1.58;;;22.30;61.80;;;;;;6002613;23;20208;-71
2023/04/30 16:31:53;;;;;;;1.40;1.40;;;22.20;62.20;;;;;;6004046;23;20160;-71
2023/04/30 16:34:18;;;;;;;1.20;1.17;;;22.00;62.30;;;;;;6004497;23;20149;-72
2023/04/30 16:36:44;;;;;;;1.88;1.30;;;21.90;61.80;;;;;;6003570;23;20221;-72
2023/04/30 16:39:10;;;;;;;1.60;1.50;;;21.80;62.20;;;;;;6001724;23;20160;-72
2023/04/30 16:41:36;;;;;;;1.25;1.25;;;21.70;61.90;;;;;;6003907;23;20156;-72
2023/04/30 16:44:01;;;;;;;1.15;1.15;;;21.50;61.70;;;;;;6001351;23;20643;-73
2023/04/30 16:46:27;;;;;;;1.00;1.00;;;21.10;62.50;;;;;;6001770;23;20160;-72
2023/04/30 16:48:53;;;;;;;3.30;1.30;;;21.00;63.20;;;;;;6000861;23;20635;-72
2023/04/30 16:51:19;;;;;;;1.30;1.30;;;20.90;63.80;;;;;;6003149;23;20163;-72
2023/04/30 16:53:44;;;;;;;2.50;1.23;;;20.60;63.50;;;;;;6003428;23;20235;-74
2023/04/30 16:56:10;;;;;;;1.38;1.20;;;20.50;64.30;;;;;;6004650;23;20191;-72
2023/04/30 16:58:37;;;;;;;1.10;1.10;;;20.30;64.50;;;;;;6005326;23;20152;-71
2023/04/30 17:01:03;;;;;;;1.63;1.63;;;20.20;64.20;;;;;;6005428;23;20148;-72
2023/04/30 17:03:29;;;;;;;2.53;2.00;;;19.90;65.10;;;;;;6005574;23;20201;-72
2023/04/30 17:05:55;;;;;;;2.53;1.65;;;19.40;66.40;;;;;;6005163;23;20267;-71
2023/04/30 17:08:21;;;;;;;2.00;1.63;;;18.90;67.80;;;;;;6004265;23;20207;-71
2023/04/30 17:10:47;;;;;;;1.67;1.67;;;18.60;68.60;;;;;;6005239;23;20149;-71
2023/04/30 17:13:13;;;;;;;1.90;1.80;;;18.30;69.60;;;;;;6004212;23;20159;-73
2023/04/30 17:15:39;;;;;;;1.55;1.55;;;18.00;70.50;;;;;;6003528;23;20148;-72
2023/04/30 17:18:05;;;;;;;1.40;1.33;;;17.70;71.20;;;;;;6003443;23;20160;-71
2023/04/30 17:20:31;;;;;;;1.83;1.73;;;17.50;71.40;;;;;;6004531;23;20156;-70
2023/04/30 17:22:57;;;;;;;1.40;1.40;;;17.60;71.10;;;;;;6006142;23;20160;-70
2023/04/30 17:25:23;;;;;;;2.42;1.48;;;17.60;71.30;;;;;;6008402;23;20517;-70
2023/04/30 17:27:48;;;;;;;1.75;1.65;;;17.50;71.80;;;;;;6004544;23;20224;-72
2023/04/30 17:30:14;;;;;;;4.65;1.92;;;17.50;71.60;;;;;;6004045;23;20170;-71
2023/04/30 17:32:41;;;;;;;2.03;1.85;;;17.50;71.50;;;;;;6002998;23;20164;-71
2023/04/30 17:35:06;;;;;;;2.17;2.03;;;17.30;72.10;;;;;;6005472;23;20255;-70
2023/04/30 17:37:34;;;;;;;2.08;1.98;;;17.30;72.50;;;;;;6004152;23;20207;-70
2023/04/30 17:39:59;;;;;;;3.33;2.25;;;17.30;72.80;;;;;;6001949;23;20191;-72
2023/04/30 17:42:25;;;;;;;4.55;2.08;;;17.20;72.80;;;;;;6005518;23;20153;-70
2023/04/30 17:44:51;;;;;;;3.10;2.10;;;17.10;73.20;;;;;;6003021;23;20243;-71
2023/04/30 17:47:17;;;;;;;1.95;1.85;;;17.00;73.30;;;;;;6003891;23;20218;-71
2023/04/30 17:49:43;;;;;;;1.67;1.67;;;17.00;73.30;;;;;;6003186;23;20164;-71
2023/04/30 17:52:12;;;;;;;2.33;2.13;;;16.90;73.40;;;;;;6003422;23;20156;-72
2023/04/30 17:54:38;;;;;;;2.65;2.45;;;16.80;74.30;;;;;;6004184;23;20660;-72
2023/04/30 17:57:03;;;;;;;1.80;1.65;;;16.40;75.00;;;;;;6003952;23;20153;-71
2023/04/30 17:59:29;;;;;;;2.55;2.42;;;16.20;75.90;;;;;;6003474;23;20164;-72
2023/04/30 18:01:55;;;;;;;2.13;2.13;;;16.10;76.20;;;;;;6004898;23;20153;-71
2023/04/30 18:04:21;;;;;;;2.72;2.20;;;16.20;76.20;;;;;;6003579;23;20160;-74
2023/04/30 18:06:47;;;;;;;2.67;2.50;;;16.10;76.20;;;;;;6003007;23;20562;-73
2023/04/30 18:09:14;;;;;;;2.17;2.08;;;16.10;75.90;;;;;;6003889;23;20605;-74
2023/04/30 18:11:40;;;;;;;3.85;2.40;;;16.10;75.70;;;;;;6002978;23;20188;-71
2023/04/30 18:14:06;;;;;;;2.30;2.20;;;16.10;75.60;;;;;;6004928;23;20752;-74
2023/04/30 18:16:32;;;;;;;2.83;2.65;;;16.00;76.20;;;;;;6003311;23;20717;-71
2023/04/30 18:18:58;;;;;;;2.70;2.50;;;16.00;76.00;;;;;;6004833;23;20236;-71
2023/04/30 18:21:24;;;;;;;3.78;2.70;;;15.90;76.20;;;;;;6004911;23;20235;-71
2023/04/30 18:23:50;;;;;;;3.50;3.30;;;15.90;76.50;;;;;;6001725;23;20160;-71
2023/04/30 18:26:23;;;;;;;2.92;2.63;;;15.80;76.50;;;;;;6003540;23;20165;-71
2023/04/30 18:28:50;;;;;;;4.28;3.33;;;15.80;77.40;;;;;;6002130;23;20560;-72
2023/04/30 18:31:16;;;;;;;11.52;3.17;;;15.70;77.90;;;;;;6002029;23;20163;-72